Radlett, United Kingdom
Current Conditions -  °F | °C
As of 12:50 PM on Saturday 20 Dec 2014 (Local Time) from EGWU Reporting Station
Few Clouds Few Clouds  
Wind Chill: 42°   Ceiling: Unl
Heat Index: 48°   Visibility: 6mi
Dew Point: 37°   Wind: 18mph
Humidity: 66%   Direction: 290°WNW
Pressure: 30.27"   Gusts: NA
Location:  51.69°N, 0.32°W
Report Text: EGWU 201250Z 29016KT 9999 FEW025 09/03 Q1025 NOSIG
Loading
Personal Weather Stations






























Interactive Weather Map New forecast layout! Learn more

10-Day Weather Forecast

Advertisements
Track Severe Weather on mobile